Flight Track Log - Related Links

Times and Time Zones

All times are in EDT time to prevent confusion due to time zone crossing. See the GJS3618 flight status page for this flight to view local times or setup timezone preferences in your user account.

Time Position Orientation Groundspeed Altitude Reporting Facility
EDT Latitude Longitude Course Direction KTS MPH feet Rate Location/Type
Sun 05:27:25 PM 42.0167 -87.9333 North 180 207 2,600  Level Chicago TRACON
Sun 05:28:19 PM 42.0500 -87.9167 20° North 221 254 4,900 2,357 Climbing Chicago TRACON
Sun 05:29:45 PM 42.1503 -87.8678 20° North 275 316 8,100 2,473 Climbing Chicago Center
Sun 05:30:00 PM 42.3164 -87.7917 10° North  Level FlightAware Approximate
Sun 05:30:47 PM 42.2239 -87.8239 24° Northeast 288 331 11,000  Level Chicago Center
Sun 05:31:00 PM 42.4025 -87.7571 20° North  Level FlightAware Approximate
Sun 05:31:50 PM 42.3064 -87.8100 North 303 349 13,200  Level Chicago Center
Sun 05:32:00 PM 42.4909 -87.7352 North  Level FlightAware Approximate
Sun 05:32:52 PM 42.4128 -87.7822 11° North 357 411 14,700  Level Chicago Center
Sun 05:33:54 PM 42.5239 -87.7475 13° North 379 436 17,200 2,226 Climbing Chicago Center
Sun 05:34:56 PM 42.6375 -87.7039 16° North 387 445 19,300 1,790 Climbing Chicago Center
Sun 05:35:58 PM 42.7461 -87.6622 16° North 401 461 20,900 823 Climbing Chicago Center
Sun 05:37:00 PM 42.8119 -87.5142 59° Northeast 475 547 21,000 48 Climbing Chicago Center
Sun 05:38:02 PM 42.8592 -87.3297 71° East 480 552 21,000  Level Chicago Center
Sun 05:39:04 PM 42.9008 -87.1589 72° East 478 550 21,000  Level Chicago Center
Sun 05:40:06 PM 42.9431 -86.9869 71° East 479 551 21,000  Level Chicago Center
Sun 05:41:08 PM 42.9844 -86.8150 72° East 480 552 21,000  Level Chicago Center
Sun 05:42:10 PM 43.0256 -86.6450 72° East 475 547 21,000  Level Chicago Center
Sun 05:43:12 PM 43.0667 -86.4731 72° East 475 547 21,000  Level Chicago Center
Sun 05:44:14 PM 43.1169 -86.2625 72° East 481 554 21,000  Level Chicago Center
Sun 05:45:16 PM 43.1583 -86.0853 72° East 481 554 21,000  Level Chicago Center
Sun 05:46:19 PM 43.1836 -85.9019 79° East 479 551 21,000  Level Chicago Center
Sun 05:47:21 PM 43.2008 -85.7214 82° East 474 545 21,000  Level Chicago Center
Sun 05:48:23 PM 43.2183 -85.5400 82° East 477 549 21,000  Level Chicago Center
Sun 05:49:21 PM 43.2350 -85.3511 83° East 460 529 21,000  Level Cleveland Center
Sun 05:50:21 PM 43.2444 -85.2236 84° East 418 481 21,000  Level Cleveland Center
Sun 05:51:21 PM 43.2189 -85.0792 104° East 382 440 21,000  Level Cleveland Center
Sun 05:52:21 PM 43.1933 -84.9322 103° East 388 447 21,000 -50 Level Cleveland Center
Sun 05:53:21 PM 43.1653 -84.7850 105° East 393 452 20,900 -650 Descending Cleveland Center
Sun 05:54:21 PM 43.1372 -84.6406 105° East 399 459 19,700 -1,150 Descending Cleveland Center
Sun 05:55:21 PM 43.1128 -84.4969 103° East 399 459 18,600 -1,026 Descending Cleveland Center
Sun 05:55:37 PM 43.1067 -84.4747 111° Southeast 385 443 18,400 -1,100 Descending Chicago Center
Sun 05:56:21 PM 43.0669 -84.3717 118° Southeast 384 442 17,500 -1,096 Descending Cleveland Center
Sun 05:57:21 PM 43.0247 -84.2611 118° Southeast 362 417 16,500 -1,050 Descending Cleveland Center
Sun 05:58:21 PM 42.9806 -84.1392 116° Southeast 362 417 15,400 -1,122 Descending Cleveland Center
Sun 05:59:24 PM 42.9328 -83.9975 115° Southeast 354 407 14,200 -1,000 Descending Cleveland Center
Sun 06:00:21 PM 42.8939 -83.8992 118° Southeast 355 409 13,400 -977 Descending Cleveland Center
Sun 06:01:33 PM 42.8397 -83.7544 117° Southeast 330 380 12,100 -1,200 Descending Cleveland Center
Sun 06:02:21 PM 42.7869 -83.7008 143° Southeast 320 368 11,000 -1,167 Descending Cleveland Center
Sun 06:03:21 PM 42.7108 -83.6606 159° South 303 349 10,000 -1,000 Descending Cleveland Center
Sun 06:04:21 PM 42.6561 -83.6069 144° Southeast 268 308 9,000 -1,150 Descending Cleveland Center
Sun 06:05:21 PM 42.6056 -83.5425 137° Southeast 252 290 7,700 -1,300 Descending Cleveland Center
Sun 06:06:21 PM 42.5592 -83.4811 136° Southeast 245 282 6,400 -850 Descending Cleveland Center
Sun 06:07:21 PM 42.5233 -83.4117 125° Southeast 229 264 6,000 -300 Descending Cleveland Center
Sun 06:07:41 PM 42.5367 -83.3814 59° Northeast 234 269 6,000 -100 Level Cleveland Center
Sun 06:08:21 PM 42.5442 -83.3311 79° East 204 235 5,900 -492 Descending Cleveland Center
Sun 06:08:42 PM 42.5653 -83.3150 29° Northeast 207 238 5,500 -1,263 Descending Cleveland Center
Sun 06:09:37 PM 42.6061 -83.2658 42° Northeast 224 258 4,300 -811 Descending Cleveland Center
Sun 06:10:33 PM 42.5783 -83.2000 120° Southeast 215 247 4,000 -146 Descending Cleveland Center
Sun 06:11:40 PM 42.5336 -83.1472 139° Southeast 174 200 4,000  Level Cleveland Center
Sun 06:12:47 PM 42.4872 -83.1736 203° Southwest 162 186 4,000  Level Cleveland Center
Sun 06:13:49 PM 42.4469 -83.2058 211° Southwest 165 190 4,000  Level Cleveland Center
Sun 06:14:50 PM 42.4044 -83.2378 209° Southwest 168 193 4,000  Level Cleveland Center

Login

Don't have an account? Register now (free) for customized features, flight alerts, and more!